sensor_id;sensor_type;location;lat;lon;timestamp;pressure;altitude;pressure_sealevel;temperature;humidity
74678;BME280;67324;56.326;43.982;2023-04-06T00:01:52;101299.22;;;19.71;31.25
74678;BME280;67324;56.326;43.982;2023-04-06T00:04:19;101299.31;;;19.70;31.24
74678;BME280;67324;56.326;43.982;2023-04-06T00:06:44;101306.13;;;19.72;31.45
74678;BME280;67324;56.326;43.982;2023-04-06T00:09:10;101309.34;;;19.65;31.13
74678;BME280;67324;56.326;43.982;2023-04-06T00:11:36;101306.38;;;19.58;31.24
74678;BME280;67324;56.326;43.982;2023-04-06T00:14:02;101309.16;;;19.45;31.26
74678;BME280;67324;56.326;43.982;2023-04-06T00:16:28;101305.69;;;19.45;31.31
74678;BME280;67324;56.326;43.982;2023-04-06T00:18:53;101310.25;;;19.31;31.49
74678;BME280;67324;56.326;43.982;2023-04-06T00:21:19;101313.94;;;19.29;31.32
74678;BME280;67324;56.326;43.982;2023-04-06T00:23:45;101317.41;;;19.29;31.84
74678;BME280;67324;56.326;43.982;2023-04-06T00:26:11;101313.09;;;19.40;32.02
74678;BME280;67324;56.326;43.982;2023-04-06T00:28:39;101306.91;;;19.41;32.01
74678;BME280;67324;56.326;43.982;2023-04-06T00:31:04;101316.53;;;19.40;32.17
74678;BME280;67324;56.326;43.982;2023-04-06T00:33:30;101320.59;;;19.44;32.31
74678;BME280;67324;56.326;43.982;2023-04-06T00:35:56;101327.53;;;19.45;32.36
74678;BME280;67324;56.326;43.982;2023-04-06T00:38:23;101330.63;;;19.50;32.52
74678;BME280;67324;56.326;43.982;2023-04-06T00:40:49;101325.94;;;19.54;32.51
74678;BME280;67324;56.326;43.982;2023-04-06T00:43:15;101329.28;;;19.56;32.58
74678;BME280;67324;56.326;43.982;2023-04-06T00:45:42;101331.66;;;19.59;32.60
74678;BME280;67324;56.326;43.982;2023-04-06T00:48:08;101327.97;;;19.62;32.63
74678;BME280;67324;56.326;43.982;2023-04-06T00:50:34;101338.22;;;19.65;32.60
74678;BME280;67324;56.326;43.982;2023-04-06T00:53:01;101337.16;;;19.67;32.76
74678;BME280;67324;56.326;43.982;2023-04-06T00:55:28;101341.22;;;19.71;32.73
74678;BME280;67324;56.326;43.982;2023-04-06T00:57:57;101340.25;;;19.72;32.76
74678;BME280;67324;56.326;43.982;2023-04-06T01:00:41;101338.22;;;19.76;32.69
74678;BME280;67324;56.326;43.982;2023-04-06T01:03:26;101343.31;;;19.77;32.69
74678;BME280;67324;56.326;43.982;2023-04-06T01:05:52;101339.75;;;19.78;32.74
74678;BME280;67324;56.326;43.982;2023-04-06T01:08:28;101341.19;;;19.83;32.81
74678;BME280;67324;56.326;43.982;2023-04-06T01:11:08;101343.69;;;19.84;32.70
74678;BME280;67324;56.326;43.982;2023-04-06T01:13:33;101339.97;;;19.87;32.88
74678;BME280;67324;56.326;43.982;2023-04-06T01:16:03;101339.84;;;19.88;32.84
74678;BME280;67324;56.326;43.982;2023-04-06T01:18:47;101349.13;;;19.92;32.93
74678;BME280;67324;56.326;43.982;2023-04-06T01:21:21;101347.22;;;19.94;32.89
74678;BME280;67324;56.326;43.982;2023-04-06T01:24:10;101347.81;;;19.98;32.74
74678;BME280;67324;56.326;43.982;2023-04-06T01:26:54;101347.69;;;19.99;32.69
74678;BME280;67324;56.326;43.982;2023-04-06T01:29:22;101337.78;;;20.03;32.93
74678;BME280;67324;56.326;43.982;2023-04-06T01:31:48;101346.47;;;20.04;32.72
74678;BME280;67324;56.326;43.982;2023-04-06T01:34:15;101339.31;;;20.06;33.01
74678;BME280;67324;56.326;43.982;2023-04-06T01:36:41;101345.28;;;20.08;32.85
74678;BME280;67324;56.326;43.982;2023-04-06T01:39:21;101351.94;;;20.12;33.06
74678;BME280;67324;56.326;43.982;2023-04-06T01:41:47;101352.66;;;20.14;32.99
74678;BME280;67324;56.326;43.982;2023-04-06T01:44:16;101360.28;;;20.17;33.03
74678;BME280;67324;56.326;43.982;2023-04-06T01:46:43;101358.50;;;20.17;32.97
74678;BME280;67324;56.326;43.982;2023-04-06T01:49:12;101364.31;;;20.21;32.99
74678;BME280;67324;56.326;43.982;2023-04-06T01:51:40;101366.69;;;20.24;32.99
74678;BME280;67324;56.326;43.982;2023-04-06T01:54:09;101362.25;;;20.25;32.98
74678;BME280;67324;56.326;43.982;2023-04-06T01:57:04;101361.31;;;20.26;33.01
74678;BME280;67324;56.326;43.982;2023-04-06T01:59:42;101365.50;;;20.28;33.02
74678;BME280;67324;56.326;43.982;2023-04-06T02:02:16;101368.00;;;20.30;32.99
74678;BME280;67324;56.326;43.982;2023-04-06T02:04:51;101379.06;;;20.33;33.05
74678;BME280;67324;56.326;43.982;2023-04-06T02:07:17;101379.78;;;20.35;33.09
74678;BME280;67324;56.326;43.982;2023-04-06T02:09:43;101378.81;;;20.36;33.09
74678;BME280;67324;56.326;43.982;2023-04-06T02:12:16;101381.44;;;20.36;33.13
74678;BME280;67324;56.326;43.982;2023-04-06T02:14:42;101383.00;;;20.39;33.13
74678;BME280;67324;56.326;43.982;2023-04-06T02:17:08;101390.75;;;20.40;33.20
74678;BME280;67324;56.326;43.982;2023-04-06T02:19:53;101390.59;;;20.42;33.14
74678;BME280;67324;56.326;43.982;2023-04-06T02:22:18;101394.78;;;20.44;33.21
74678;BME280;67324;56.326;43.982;2023-04-06T02:24:44;101396.47;;;20.46;33.20
74678;BME280;67324;56.326;43.982;2023-04-06T02:27:13;101395.50;;;20.47;33.15
74678;BME280;67324;56.326;43.982;2023-04-06T02:29:39;101405.88;;;20.48;33.33
74678;BME280;67324;56.326;43.982;2023-04-06T02:32:06;101409.09;;;20.52;33.29
74678;BME280;67324;56.326;43.982;2023-04-06T02:34:32;101407.16;;;20.54;33.35
74678;BME280;67324;56.326;43.982;2023-04-06T02:36:58;101404.53;;;20.54;33.21
74678;BME280;67324;56.326;43.982;2023-04-06T02:39:25;101404.47;;;20.55;33.40
74678;BME280;67324;56.326;43.982;2023-04-06T02:41:51;101413.06;;;20.57;33.28
74678;BME280;67324;56.326;43.982;2023-04-06T02:44:21;101412.91;;;20.59;33.36
74678;BME280;67324;56.326;43.982;2023-04-06T02:46:47;101417.22;;;20.60;33.45
74678;BME280;67324;56.326;43.982;2023-04-06T02:49:12;101420.53;;;20.62;33.29
74678;BME280;67324;56.326;43.982;2023-04-06T02:51:39;101423.03;;;20.63;33.32
74678;BME280;67324;56.326;43.982;2023-04-06T02:54:17;101424.72;;;20.64;33.35
74678;BME280;67324;56.326;43.982;2023-04-06T02:56:43;101425.56;;;20.65;33.27
74678;BME280;67324;56.326;43.982;2023-04-06T02:59:09;101423.63;;;20.67;33.51
74678;BME280;67324;56.326;43.982;2023-04-06T03:01:36;101427.09;;;20.68;33.47
74678;BME280;67324;56.326;43.982;2023-04-06T03:04:04;101432.09;;;20.71;33.45
74678;BME280;67324;56.326;43.982;2023-04-06T03:06:30;101432.91;;;20.71;33.40
74678;BME280;67324;56.326;43.982;2023-04-06T03:09:02;101431.97;;;20.72;33.44
74678;BME280;67324;56.326;43.982;2023-04-06T03:11:30;101433.63;;;20.73;33.56
74678;BME280;67324;56.326;43.982;2023-04-06T03:13:56;101434.34;;;20.75;33.52
74678;BME280;67324;56.326;43.982;2023-04-06T03:16:40;101436.81;;;20.77;33.62
74678;BME280;67324;56.326;43.982;2023-04-06T03:19:07;101434.06;;;20.78;33.49
74678;BME280;67324;56.326;43.982;2023-04-06T03:21:34;101437.69;;;20.77;33.53
74678;BME280;67324;56.326;43.982;2023-04-06T03:24:19;101439.34;;;20.78;33.52
74678;BME280;67324;56.326;43.982;2023-04-06T03:26:45;101436.72;;;20.78;33.47
74678;BME280;67324;56.326;43.982;2023-04-06T03:29:11;101440.75;;;20.82;33.54
74678;BME280;67324;56.326;43.982;2023-04-06T03:31:36;101443.25;;;20.84;33.57
74678;BME280;67324;56.326;43.982;2023-04-06T03:34:12;101443.13;;;20.85;33.68
74678;BME280;67324;56.326;43.982;2023-04-06T03:36:38;101452.66;;;20.86;33.64
74678;BME280;67324;56.326;43.982;2023-04-06T03:39:04;101451.72;;;20.88;33.67
74678;BME280;67324;56.326;43.982;2023-04-06T03:41:33;101445.50;;;20.89;33.70
74678;BME280;67324;56.326;43.982;2023-04-06T03:44:05;101452.28;;;20.91;33.70
74678;BME280;67324;56.326;43.982;2023-04-06T03:46:31;101449.66;;;20.91;33.63
74678;BME280;67324;56.326;43.982;2023-04-06T03:48:58;101451.34;;;20.92;33.77
74678;BME280;67324;56.326;43.982;2023-04-06T03:51:24;101456.34;;;20.95;33.72
74678;BME280;67324;56.326;43.982;2023-04-06T03:53:50;101459.81;;;20.96;33.80
74678;BME280;67324;56.326;43.982;2023-04-06T03:56:16;101450.97;;;20.97;33.81
74678;BME280;67324;56.326;43.982;2023-04-06T03:58:42;101454.41;;;20.97;33.57
74678;BME280;67324;56.326;43.982;2023-04-06T04:01:10;101449.00;;;20.99;33.79
74678;BME280;67324;56.326;43.982;2023-04-06T04:03:36;101458.44;;;21.01;33.77
74678;BME280;67324;56.326;43.982;2023-04-06T04:06:02;101459.16;;;21.03;33.73
74678;BME280;67324;56.326;43.982;2023-04-06T04:08:28;101460.84;;;21.04;33.78
74678;BME280;67324;56.326;43.982;2023-04-06T04:10:54;101469.56;;;21.05;33.80
74678;BME280;67324;56.326;43.982;2023-04-06T04:13:20;101467.63;;;21.07;33.79
74678;BME280;67324;56.326;43.982;2023-04-06T04:15:48;101474.44;;;21.10;33.83
74678;BME280;67324;56.326;43.982;2023-04-06T04:18:14;101462.22;;;21.08;33.72
74678;BME280;67324;56.326;43.982;2023-04-06T04:20:40;101467.38;;;21.10;33.70
74678;BME280;67324;56.326;43.982;2023-04-06T04:23:08;101464.47;;;21.13;33.71
74678;BME280;67324;56.326;43.982;2023-04-06T04:25:34;101472.25;;;21.15;33.91
74678;BME280;67324;56.326;43.982;2023-04-06T04:28:01;101474.72;;;21.16;33.76
74678;BME280;67324;56.326;43.982;2023-04-06T04:30:27;101465.06;;;21.17;33.85
74678;BME280;67324;56.326;43.982;2023-04-06T04:32:53;101464.91;;;21.18;33.89
74678;BME280;67324;56.326;43.982;2023-04-06T04:35:21;101474.34;;;21.21;33.75
74678;BME280;67324;56.326;43.982;2023-04-06T04:37:48;101470.06;;;21.20;33.84
74678;BME280;67324;56.326;43.982;2023-04-06T04:40:15;101476.88;;;21.22;33.92
74678;BME280;67324;56.326;43.982;2023-04-06T04:42:56;101466.34;;;21.22;33.86
74678;BME280;67324;56.326;43.982;2023-04-06T04:45:30;101465.25;;;21.25;33.80
74678;BME280;67324;56.326;43.982;2023-04-06T04:47:58;101467.03;;;21.24;34.00
74678;BME280;67324;56.326;43.982;2023-04-06T04:50:31;101469.53;;;21.26;33.95
74678;BME280;67324;56.326;43.982;2023-04-06T04:52:58;101474.66;;;21.27;34.01
74678;BME280;67324;56.326;43.982;2023-04-06T04:55:25;101480.66;;;21.29;33.98
74678;BME280;67324;56.326;43.982;2023-04-06T04:57:54;101470.94;;;21.30;33.96
74678;BME280;67324;56.326;43.982;2023-04-06T05:00:26;101477.88;;;21.31;34.04
74678;BME280;67324;56.326;43.982;2023-04-06T05:02:56;101478.72;;;21.32;34.04
74678;BME280;67324;56.326;43.982;2023-04-06T05:05:40;101488.34;;;21.42;35.35
74678;BME280;67324;56.326;43.982;2023-04-06T05:08:06;101492.41;;;21.56;36.29
74678;BME280;67324;56.326;43.982;2023-04-06T05:10:42;101495.69;;;21.69;37.04
74678;BME280;67324;56.326;43.982;2023-04-06T05:13:08;101493.91;;;21.80;37.64
74678;BME280;67324;56.326;43.982;2023-04-06T05:15:34;101493.38;;;21.86;37.80
74678;BME280;67324;56.326;43.982;2023-04-06T05:18:10;101500.31;;;21.87;37.77
74678;BME280;67324;56.326;43.982;2023-04-06T05:20:37;101496.16;;;21.84;38.29
74678;BME280;67324;56.326;43.982;2023-04-06T05:23:03;101495.31;;;21.84;38.75
74678;BME280;67324;56.326;43.982;2023-04-06T05:25:47;101491.28;;;21.80;38.96
74678;BME280;67324;56.326;43.982;2023-04-06T05:28:18;101493.22;;;21.78;39.07
74678;BME280;67324;56.326;43.982;2023-04-06T05:30:44;101501.94;;;21.78;39.53
74678;BME280;67324;56.326;43.982;2023-04-06T05:33:12;101503.88;;;21.76;39.82
74678;BME280;67324;56.326;43.982;2023-04-06T05:35:58;101503.88;;;21.76;40.08
74678;BME280;67324;56.326;43.982;2023-04-06T05:38:27;101503.88;;;21.76;40.42
74678;BME280;67324;56.326;43.982;2023-04-06T05:40:56;101508.31;;;21.76;40.77
74678;BME280;67324;56.326;43.982;2023-04-06T05:43:25;101507.47;;;21.75;40.79
74678;BME280;67324;56.326;43.982;2023-04-06T05:45:54;101508.31;;;21.76;40.81
74678;BME280;67324;56.326;43.982;2023-04-06T05:48:20;101502.22;;;21.75;40.94
74678;BME280;67324;56.326;43.982;2023-04-06T05:51:04;101510.94;;;21.76;41.38
74678;BME280;67324;56.326;43.982;2023-04-06T05:53:42;101504.72;;;21.77;40.85
74678;BME280;67324;56.326;43.982;2023-04-06T05:56:08;101501.22;;;21.76;40.89
74678;BME280;67324;56.326;43.982;2023-04-06T05:58:34;101510.66;;;21.79;41.03
74678;BME280;67324;56.326;43.982;2023-04-06T06:01:01;101516.78;;;21.79;40.93
74678;BME280;67324;56.326;43.982;2023-04-06T06:03:36;101511.38;;;21.81;40.94
74678;BME280;67324;56.326;43.982;2023-04-06T06:06:03;101515.00;;;21.80;40.75
74678;BME280;67324;56.326;43.982;2023-04-06T06:08:37;101516.53;;;21.82;40.71
74678;BME280;67324;56.326;43.982;2023-04-06T06:11:09;101519.16;;;21.82;40.57
74678;BME280;67324;56.326;43.982;2023-04-06T06:13:35;101522.50;;;21.84;40.44
74678;BME280;67324;56.326;43.982;2023-04-06T06:16:01;101524.16;;;21.85;40.44
74678;BME280;67324;56.326;43.982;2023-04-06T06:18:32;101512.78;;;21.85;40.51
74678;BME280;67324;56.326;43.982;2023-04-06T06:20:58;101524.16;;;21.85;40.49
74678;BME280;67324;56.326;43.982;2023-04-06T06:23:25;101521.41;;;21.87;40.33
74678;BME280;67324;56.326;43.982;2023-04-06T06:25:52;101529.13;;;21.88;40.15
74678;BME280;67324;56.326;43.982;2023-04-06T06:28:20;101519.47;;;21.89;40.16
74678;BME280;67324;56.326;43.982;2023-04-06T06:31:05;101522.94;;;21.89;40.13
74678;BME280;67324;56.326;43.982;2023-04-06T06:33:31;101524.59;;;21.90;40.05
74678;BME280;67324;56.326;43.982;2023-04-06T06:35:58;101523.63;;;21.91;39.97
74678;BME280;67324;56.326;43.982;2023-04-06T06:38:24;101523.63;;;21.91;39.88
74678;BME280;67324;56.326;43.982;2023-04-06T06:40:50;101522.66;;;21.92;39.79
74678;BME280;67324;56.326;43.982;2023-04-06T06:43:16;101526.94;;;21.93;39.76
74678;BME280;67324;56.326;43.982;2023-04-06T06:45:51;101517.38;;;21.92;39.75
74678;BME280;67324;56.326;43.982;2023-04-06T06:48:17;101525.00;;;21.96;39.67
74678;BME280;67324;56.326;43.982;2023-04-06T06:50:43;101525.00;;;21.96;39.57
74678;BME280;67324;56.326;43.982;2023-04-06T06:53:27;101527.53;;;21.97;39.46
74678;BME280;67324;56.326;43.982;2023-04-06T06:55:54;101521.28;;;21.98;39.45
74678;BME280;67324;56.326;43.982;2023-04-06T06:58:20;101524.78;;;21.99;39.38
74678;BME280;67324;56.326;43.982;2023-04-06T07:00:47;101525.59;;;21.99;39.35
74678;BME280;67324;56.326;43.982;2023-04-06T07:03:12;101526.44;;;22.00;39.31
74678;BME280;67324;56.326;43.982;2023-04-06T07:05:39;101523.88;;;21.88;38.04
74678;BME280;67324;56.326;43.982;2023-04-06T07:08:10;101522.47;;;21.54;34.68
74678;BME280;67324;56.326;43.982;2023-04-06T07:10:36;101524.91;;;21.03;32.88
74678;BME280;67324;56.326;43.982;2023-04-06T07:13:02;101513.50;;;19.95;32.08
74678;BME280;67324;56.326;43.982;2023-04-06T07:15:28;101509.69;;;19.99;33.10
74678;BME280;67324;56.326;43.982;2023-04-06T07:17:55;101523.03;;;19.04;32.65
74678;BME280;67324;56.326;43.982;2023-04-06T07:20:40;101519.47;;;18.20;33.47
74678;BME280;67324;56.326;43.982;2023-04-06T07:23:06;101504.63;;;18.08;33.28
74678;BME280;67324;56.326;43.982;2023-04-06T07:25:50;101514.38;;;18.43;33.00
74678;BME280;67324;56.326;43.982;2023-04-06T07:28:18;101509.72;;;18.59;32.28
74678;BME280;67324;56.326;43.982;2023-04-06T07:30:43;101517.78;;;18.32;32.72
74678;BME280;67324;56.326;43.982;2023-04-06T07:33:11;101513.06;;;17.88;33.11
74678;BME280;67324;56.326;43.982;2023-04-06T07:35:38;101511.81;;;17.80;32.91
74678;BME280;67324;56.326;43.982;2023-04-06T07:38:05;101528.84;;;17.86;32.93
74678;BME280;67324;56.326;43.982;2023-04-06T07:40:49;101511.69;;;17.95;33.21
74678;BME280;67324;56.326;43.982;2023-04-06T07:43:16;101518.13;;;18.76;33.66
74678;BME280;67324;56.326;43.982;2023-04-06T07:45:42;101513.47;;;19.39;33.31
74678;BME280;67324;56.326;43.982;2023-04-06T07:48:09;101519.72;;;19.83;32.92
74678;BME280;67324;56.326;43.982;2023-04-06T07:50:35;101508.00;;;20.09;32.75
74678;BME280;67324;56.326;43.982;2023-04-06T07:53:02;101515.50;;;20.25;32.53
74678;BME280;67324;56.326;43.982;2023-04-06T07:55:29;101510.09;;;20.38;32.52
74678;BME280;67324;56.326;43.982;2023-04-06T07:57:55;101516.38;;;20.47;32.41
74678;BME280;67324;56.326;43.982;2023-04-06T08:00:21;101515.75;;;20.54;32.40
74678;BME280;67324;56.326;43.982;2023-04-06T08:02:47;101525.94;;;20.59;32.33
74678;BME280;67324;56.326;43.982;2023-04-06T08:05:13;101519.38;;;20.64;32.51
74678;BME280;67324;56.326;43.982;2023-04-06T08:07:39;101516.22;;;20.71;32.49
74678;BME280;67324;56.326;43.982;2023-04-06T08:10:05;101523.84;;;20.74;32.40
74678;BME280;67324;56.326;43.982;2023-04-06T08:12:32;101521.69;;;20.79;32.34
74678;BME280;67324;56.326;43.982;2023-04-06T08:14:58;101519.66;;;20.82;32.36
74678;BME280;67324;56.326;43.982;2023-04-06T08:17:25;101516.75;;;20.85;32.25
74678;BME280;67324;56.326;43.982;2023-04-06T08:19:51;101522.72;;;20.88;32.27
74678;BME280;67324;56.326;43.982;2023-04-06T08:22:17;101524.13;;;20.92;32.38
74678;BME280;67324;56.326;43.982;2023-04-06T08:24:43;101519.59;;;20.94;32.19
74678;BME280;67324;56.326;43.982;2023-04-06T08:27:09;101518.38;;;20.98;32.24
74678;BME280;67324;56.326;43.982;2023-04-06T08:29:35;101520.91;;;20.99;32.32
74678;BME280;67324;56.326;43.982;2023-04-06T08:32:01;101521.56;;;21.01;32.27
74678;BME280;67324;56.326;43.982;2023-04-06T08:34:48;101519.53;;;21.05;32.41
74678;BME280;67324;56.326;43.982;2023-04-06T08:37:15;101522.88;;;20.31;30.27
74678;BME280;67324;56.326;43.982;2023-04-06T08:39:41;101510.63;;;20.09;30.28
74678;BME280;67324;56.326;43.982;2023-04-06T08:42:21;101521.78;;;20.34;30.66
74678;BME280;67324;56.326;43.982;2023-04-06T08:44:49;101521.28;;;20.51;31.04
74678;BME280;67324;56.326;43.982;2023-04-06T08:47:16;101522.94;;;20.63;31.22
74678;BME280;67324;56.326;43.982;2023-04-06T08:49:44;101520.28;;;20.75;31.49
74678;BME280;67324;56.326;43.982;2023-04-06T08:52:11;101526.72;;;20.82;31.52
74678;BME280;67324;56.326;43.982;2023-04-06T08:54:38;101521.03;;;20.86;31.54
74678;BME280;67324;56.326;43.982;2023-04-06T08:57:04;101515.16;;;20.94;31.33
74678;BME280;67324;56.326;43.982;2023-04-06T08:59:31;101517.56;;;20.97;31.29
74678;BME280;67324;56.326;43.982;2023-04-06T09:01:57;101515.47;;;21.01;31.35
74678;BME280;67324;56.326;43.982;2023-04-06T09:04:24;101520.47;;;21.04;31.36
74678;BME280;67324;56.326;43.982;2023-04-06T09:06:50;101515.94;;;21.06;31.37
74678;BME280;67324;56.326;43.982;2023-04-06T09:09:16;101518.31;;;21.09;31.34
74678;BME280;67324;56.326;43.982;2023-04-06T09:11:47;101516.25;;;21.13;31.19
74678;BME280;67324;56.326;43.982;2023-04-06T09:14:14;101511.72;;;21.15;31.20
74678;BME280;67324;56.326;43.982;2023-04-06T09:16:42;101521.97;;;21.18;31.11
74678;BME280;67324;56.326;43.982;2023-04-06T09:19:09;101514.78;;;21.20;31.27
74678;BME280;67324;56.326;43.982;2023-04-06T09:21:36;101515.50;;;21.22;31.36
74678;BME280;67324;56.326;43.982;2023-04-06T09:24:03;101514.41;;;21.24;31.32
74678;BME280;67324;56.326;43.982;2023-04-06T09:26:29;101509.00;;;21.26;31.33
74678;BME280;67324;56.326;43.982;2023-04-06T09:28:57;101511.50;;;21.27;31.27
74678;BME280;67324;56.326;43.982;2023-04-06T09:31:26;101518.31;;;21.30;31.42
74678;BME280;67324;56.326;43.982;2023-04-06T09:33:53;101510.31;;;21.32;31.42
74678;BME280;67324;56.326;43.982;2023-04-06T09:36:28;101514.47;;;21.34;31.44
74678;BME280;67324;56.326;43.982;2023-04-06T09:38:57;101516.84;;;21.37;31.43
74678;BME280;67324;56.326;43.982;2023-04-06T09:44:02;101507.88;;;21.40;31.44
74678;BME280;67324;56.326;43.982;2023-04-06T09:46:47;101511.22;;;21.42;31.64
74678;BME280;67324;56.326;43.982;2023-04-06T09:49:14;101507.59;;;21.43;31.55
74678;BME280;67324;56.326;43.982;2023-04-06T09:51:49;101491.81;;;21.43;31.57
74678;BME280;67324;56.326;43.982;2023-04-06T09:54:22;101498.63;;;21.45;31.56
74678;BME280;67324;56.326;43.982;2023-04-06T09:59:33;101502.66;;;21.49;31.68
74678;BME280;67324;56.326;43.982;2023-04-06T10:05:35;101495.75;;;20.74;27.66
74678;BME280;67324;56.326;43.982;2023-04-06T10:08:07;101484.47;;;20.51;27.58
74678;BME280;67324;56.326;43.982;2023-04-06T10:10:34;101489.81;;;20.29;26.55
74678;BME280;67324;56.326;43.982;2023-04-06T10:13:00;101492.72;;;20.03;26.56
74678;BME280;67324;56.326;43.982;2023-04-06T10:15:28;101489.50;;;19.66;26.06
74678;BME280;67324;56.326;43.982;2023-04-06T10:17:58;101489.84;;;18.68;24.97
74678;BME280;67324;56.326;43.982;2023-04-06T10:20:39;101488.78;;;18.22;23.98
74678;BME280;67324;56.326;43.982;2023-04-06T10:23:19;101491.81;;;18.29;24.90
74678;BME280;67324;56.326;43.982;2023-04-06T10:26:16;101482.66;;;18.35;25.20
74678;BME280;67324;56.326;43.982;2023-04-06T10:28:44;101482.94;;;17.82;24.53
74678;BME280;67324;56.326;43.982;2023-04-06T10:31:11;101487.00;;;17.35;24.35
74678;BME280;67324;56.326;43.982;2023-04-06T10:33:37;101489.72;;;17.46;24.25
74678;BME280;67324;56.326;43.982;2023-04-06T10:36:10;101490.56;;;17.59;24.34
74678;BME280;67324;56.326;43.982;2023-04-06T10:38:38;101496.81;;;17.70;24.71
74678;BME280;67324;56.326;43.982;2023-04-06T10:41:05;101491.72;;;17.94;25.84
74678;BME280;67324;56.326;43.982;2023-04-06T10:43:56;101494.84;;;18.23;26.29
74678;BME280;67324;56.326;43.982;2023-04-06T10:46:27;101490.81;;;18.67;25.86
74678;BME280;67324;56.326;43.982;2023-04-06T10:48:53;101497.38;;;18.72;26.09
74678;BME280;67324;56.326;43.982;2023-04-06T10:51:24;101491.94;;;19.11;27.12
74678;BME280;67324;56.326;43.982;2023-04-06T10:53:53;101494.94;;;19.29;26.86
74678;BME280;67324;56.326;43.982;2023-04-06T10:56:37;101498.19;;;19.55;28.19
74678;BME280;67324;56.326;43.982;2023-04-06T10:59:05;101485.09;;;18.73;25.04
74678;BME280;67324;56.326;43.982;2023-04-06T11:01:31;101486.28;;;18.45;24.91
74678;BME280;67324;56.326;43.982;2023-04-06T11:03:57;101482.88;;;18.56;25.49
74678;BME280;67324;56.326;43.982;2023-04-06T11:06:28;101485.56;;;18.43;25.31
74678;BME280;67324;56.326;43.982;2023-04-06T11:08:57;101492.13;;;17.36;24.20
74678;BME280;67324;56.326;43.982;2023-04-06T11:11:24;101493.03;;;17.74;25.23
74678;BME280;67324;56.326;43.982;2023-04-06T11:19:07;101485.97;;;18.73;26.13
74678;BME280;67324;56.326;43.982;2023-04-06T11:21:52;101482.72;;;19.05;26.42
74678;BME280;67324;56.326;43.982;2023-04-06T11:24:20;101489.59;;;19.30;26.08
74678;BME280;67324;56.326;43.982;2023-04-06T11:26:49;101480.53;;;19.34;26.08
74678;BME280;67324;56.326;43.982;2023-04-06T11:29:37;101489.13;;;19.36;26.16
74678;BME280;67324;56.326;43.982;2023-04-06T11:32:04;101481.47;;;19.45;26.14
74678;BME280;67324;56.326;43.982;2023-04-06T11:34:39;101482.94;;;19.49;26.45
74678;BME280;67324;56.326;43.982;2023-04-06T11:37:09;101481.28;;;19.48;26.40
74678;BME280;67324;56.326;43.982;2023-04-06T11:39:43;101483.53;;;19.64;26.66
74678;BME280;67324;56.326;43.982;2023-04-06T11:42:09;101489.31;;;19.80;27.26
74678;BME280;67324;56.326;43.982;2023-04-06T11:47:03;101478.38;;;19.62;26.38
74678;BME280;67324;56.326;43.982;2023-04-06T11:49:30;101478.53;;;19.38;26.09
74678;BME280;67324;56.326;43.982;2023-04-06T11:51:58;101470.50;;;19.28;25.90
74678;BME280;67324;56.326;43.982;2023-04-06T11:54:34;101479.75;;;19.10;25.86
74678;BME280;67324;56.326;43.982;2023-04-06T11:57:02;101470.63;;;19.27;26.18
74678;BME280;67324;56.326;43.982;2023-04-06T11:59:28;101482.22;;;19.35;26.26
74678;BME280;67324;56.326;43.982;2023-04-06T12:01:54;101481.34;;;19.35;26.47
74678;BME280;67324;56.326;43.982;2023-04-06T12:04:20;101473.63;;;19.33;26.43
74678;BME280;67324;56.326;43.982;2023-04-06T12:06:47;101471.13;;;19.43;26.19
74678;BME280;67324;56.326;43.982;2023-04-06T12:09:13;101472.19;;;19.41;25.97
74678;BME280;67324;56.326;43.982;2023-04-06T12:11:39;101468.38;;;19.45;26.05
74678;BME280;67324;56.326;43.982;2023-04-06T12:14:06;101470.63;;;19.49;26.32
74678;BME280;67324;56.326;43.982;2023-04-06T12:16:33;101473.16;;;19.51;25.88
74678;BME280;67324;56.326;43.982;2023-04-06T12:19:00;101461.22;;;19.47;26.01
74678;BME280;67324;56.326;43.982;2023-04-06T12:21:27;101467.22;;;19.71;26.61
74678;BME280;67324;56.326;43.982;2023-04-06T12:23:54;101458.84;;;19.66;26.38
74678;BME280;67324;56.326;43.982;2023-04-06T12:26:21;101469.78;;;19.60;26.39
74678;BME280;67324;56.326;43.982;2023-04-06T12:28:47;101463.38;;;19.64;26.40
74678;BME280;67324;56.326;43.982;2023-04-06T12:31:20;101463.13;;;19.56;26.41
74678;BME280;67324;56.326;43.982;2023-04-06T12:33:47;101460.94;;;19.27;25.95
74678;BME280;67324;56.326;43.982;2023-04-06T12:36:15;101471.94;;;19.32;26.10
74678;BME280;67324;56.326;43.982;2023-04-06T12:38:41;101467.66;;;19.31;26.38
74678;BME280;67324;56.326;43.982;2023-04-06T12:41:07;101468.84;;;19.39;26.33
74678;BME280;67324;56.326;43.982;2023-04-06T12:43:33;101469.09;;;19.47;26.53
74678;BME280;67324;56.326;43.982;2023-04-06T12:45:59;101467.16;;;19.37;26.60
74678;BME280;67324;56.326;43.982;2023-04-06T12:48:25;101467.16;;;19.37;26.35
74678;BME280;67324;56.326;43.982;2023-04-06T12:51:00;101467.41;;;19.34;26.09
74678;BME280;67324;56.326;43.982;2023-04-06T12:53:27;101472.53;;;19.25;26.40
74678;BME280;67324;56.326;43.982;2023-04-06T12:55:56;101472.53;;;19.25;26.45
74678;BME280;67324;56.326;43.982;2023-04-06T12:58:23;101473.97;;;19.29;26.54
74678;BME280;67324;56.326;43.982;2023-04-06T13:00:50;101477.19;;;19.44;26.65
74678;BME280;67324;56.326;43.982;2023-04-06T13:03:19;101476.38;;;19.54;26.97
74678;BME280;67324;56.326;43.982;2023-04-06T13:05:46;101464.34;;;19.74;27.16
74678;BME280;67324;56.326;43.982;2023-04-06T13:08:13;101458.97;;;19.76;27.08